createdAt,value
2019-04-01T03:56:31.927Z,98.10
2019-04-01T03:59:03.214Z,82.40
2019-04-01T04:01:35.392Z,67.47
2019-04-01T04:04:05.919Z,67.83
2019-04-01T04:06:36.506Z,52.27
2019-04-01T04:09:07.082Z,55.53
2019-04-01T04:11:37.760Z,79.90
2019-04-01T04:14:08.451Z,137.70
2019-04-01T04:16:39.087Z,108.90
2019-04-01T04:19:09.719Z,89.50
2019-04-01T04:21:40.451Z,75.53
2019-04-01T04:24:11.088Z,58.37
2019-04-01T04:26:41.621Z,44.87
2019-04-01T04:29:12.153Z,68.30
2019-04-01T04:31:42.781Z,66.93
2019-04-01T04:34:13.519Z,71.50
2019-04-01T04:36:44.147Z,74.80
2019-04-01T04:39:14.681Z,66.83
2019-04-01T04:41:45.342Z,60.73
2019-04-01T04:44:15.889Z,60.73
2019-04-01T04:46:46.371Z,54.57
2019-04-01T04:49:17.011Z,57.43
2019-04-01T04:51:47.589Z,56.93
2019-04-01T04:54:18.270Z,53.17
2019-04-01T04:56:48.802Z,66.43
2019-04-01T04:59:19.447Z,67.47
2019-04-01T05:01:50.170Z,56.03
2019-04-01T05:04:20.909Z,53.90
2019-04-01T05:06:51.393Z,53.83
2019-04-01T05:09:21.993Z,75.03
2019-04-01T05:11:52.730Z,66.27
2019-04-01T05:14:23.192Z,53.63
2019-04-01T05:16:53.780Z,56.30
2019-04-01T05:19:24.262Z,73.40
2019-04-01T05:21:55.038Z,116.43
2019-04-01T05:24:25.527Z,108.83
2019-04-01T05:26:57.184Z,117.60
2019-04-01T05:29:27.761Z,66.77
2019-04-01T05:31:58.386Z,64.87
2019-04-01T05:34:29.432Z,55.73
2019-04-01T05:36:59.960Z,48.17
2019-04-01T05:39:30.598Z,37.20
2019-04-01T05:42:01.235Z,32.88
2019-04-01T05:44:32.881Z,29.30
2019-04-01T05:47:03.469Z,32.75
2019-04-01T05:49:34.054Z,31.57
2019-04-01T05:52:04.590Z,32.58
2019-04-01T05:54:35.177Z,44.40
2019-04-01T05:57:05.846Z,33.50
2019-04-01T05:59:36.486Z,32.83
2019-04-01T06:02:07.135Z,27.52
2019-04-01T06:04:37.855Z,29.10
2019-04-01T06:07:08.487Z,27.58
2019-04-01T06:09:39.084Z,71.87
2019-04-01T06:12:09.591Z,28.07
2019-04-01T06:14:41.149Z,32.08
2019-04-01T06:17:11.641Z,26.80
2019-04-01T06:19:42.159Z,25.43
2019-04-01T06:22:12.900Z,26.73
2019-04-01T06:24:43.530Z,22.75
2019-04-01T06:27:15.599Z,21.42
2019-04-01T06:29:46.541Z,25.00
2019-04-01T06:32:17.076Z,30.88
2019-04-01T06:34:52.917Z,21.35
2019-04-01T06:37:19.774Z,20.60
2019-04-01T06:39:50.303Z,23.45
2019-04-01T06:42:21.820Z,18.10
2019-04-01T06:44:52.414Z,24.02
2019-04-01T06:47:22.916Z,31.00
2019-04-01T06:49:53.446Z,35.08
2019-04-01T06:52:24.050Z,62.00
2019-04-01T06:54:54.575Z,33.88
2019-04-01T06:57:25.107Z,37.03
2019-04-01T06:59:55.679Z,28.70
2019-04-01T07:02:26.214Z,32.20
2019-04-01T07:04:56.742Z,26.87
2019-04-01T07:07:27.709Z,32.25
2019-04-01T07:09:58.214Z,37.95
2019-04-01T07:12:28.842Z,19.50
2019-04-01T07:14:59.398Z,17.87
2019-04-01T07:17:30.116Z,12.37
2019-04-01T07:20:00.848Z,14.50
2019-04-01T07:22:31.819Z,13.88
2019-04-01T07:25:02.528Z,13.53
2019-04-01T07:27:33.279Z,17.12
2019-04-01T07:30:04.820Z,15.30
2019-04-01T07:32:35.393Z,13.93
2019-04-01T07:35:06.188Z,23.22
2019-04-01T07:37:38.253Z,18.27
2019-04-01T07:40:08.827Z,18.23
2019-04-01T07:42:39.510Z,18.25
2019-04-01T07:45:10.039Z,11.57
2019-04-01T07:47:40.740Z,14.45
2019-04-01T07:50:12.428Z,14.45
2019-04-01T07:52:43.173Z,11.83
2019-04-01T07:55:13.814Z,11.95
2019-04-01T07:57:44.342Z,12.95
2019-04-01T08:00:14.874Z,12.30
2019-04-01T08:02:48.857Z,11.28
2019-04-01T08:05:17.879Z,12.43
2019-04-01T08:07:48.508Z,11.12
2019-04-01T08:10:20.211Z,16.10
2019-04-01T08:12:50.701Z,12.35
2019-04-01T08:15:22.926Z,10.55
2019-04-01T08:17:53.685Z,12.05
2019-04-01T08:20:25.648Z,11.60
2019-04-01T08:22:56.290Z,17.02
2019-04-01T08:25:26.818Z,6.12
2019-04-01T08:27:57.378Z,7.03
2019-04-01T08:30:28.072Z,4.05
2019-04-01T08:32:58.743Z,9.13
2019-04-01T08:35:29.252Z,7.42
2019-04-01T08:37:59.905Z,9.13
2019-04-01T08:40:30.505Z,8.68
2019-04-01T08:43:01.147Z,9.40
2019-04-01T08:45:36.815Z,12.47
2019-04-01T08:48:07.367Z,6.95
2019-04-01T08:50:38.186Z,6.05
2019-04-01T08:53:08.627Z,2.37
2019-04-01T08:55:39.149Z,6.80
2019-04-01T08:58:09.610Z,4.92
2019-04-01T09:00:40.897Z,9.20
2019-04-01T09:03:11.542Z,7.20
2019-04-01T09:05:42.103Z,4.53
2019-04-01T09:08:12.719Z,5.85
2019-04-01T09:10:43.235Z,4.60
2019-04-01T09:13:13.786Z,3.10
2019-04-01T09:15:44.396Z,7.10
2019-04-01T09:18:14.925Z,3.30
2019-04-01T09:20:45.463Z,3.30
2019-04-01T09:23:15.930Z,5.72
2019-04-01T09:25:46.493Z,3.37
2019-04-01T09:28:16.960Z,3.40
2019-04-01T09:30:47.501Z,4.70
2019-04-01T09:33:18.070Z,3.50
2019-04-01T09:35:48.644Z,4.78
2019-04-01T09:38:19.280Z,7.67
2019-04-01T09:40:49.927Z,6.30
2019-04-01T09:43:20.440Z,5.22
2019-04-01T09:45:50.972Z,4.37
2019-04-01T09:48:23.670Z,4.40
2019-04-01T09:50:53.876Z,5.87
2019-04-01T09:53:24.506Z,2.25
2019-04-01T09:55:55.070Z,4.55
2019-04-01T09:58:25.685Z,7.25
2019-04-01T10:00:56.210Z,4.60
2019-04-01T10:03:26.675Z,5.30
2019-04-01T10:05:57.438Z,6.03
2019-04-01T10:08:41.538Z,5.03
2019-04-01T10:11:00.517Z,5.22
2019-04-01T10:13:31.221Z,6.83
2019-04-01T10:16:01.850Z,6.65
2019-04-01T10:18:32.383Z,11.25
2019-04-01T10:21:02.919Z,4.35
2019-04-01T10:23:33.394Z,5.80
2019-04-01T10:26:03.979Z,3.27
2019-04-01T10:28:34.509Z,5.05
2019-04-01T10:31:05.137Z,6.72
2019-04-01T10:33:35.673Z,3.72
2019-04-01T10:36:06.298Z,2.95
2019-04-01T10:38:37.243Z,19.48
2019-04-01T10:41:07.779Z,3.72
2019-04-01T10:43:38.716Z,3.83
2019-04-01T10:46:12.337Z,4.37
2019-04-01T10:48:43.225Z,4.28
2019-04-01T10:51:15.019Z,6.90
2019-04-01T10:53:45.675Z,7.87
2019-04-01T10:56:16.223Z,19.02
2019-04-01T10:58:47.029Z,3.90
2019-04-01T11:01:17.656Z,4.55
2019-04-01T11:03:48.270Z,2.47
2019-04-01T11:06:18.740Z,10.28
2019-04-01T11:08:49.457Z,4.85
2019-04-01T11:11:20.092Z,7.05
2019-04-01T11:14:08.435Z,6.62
2019-04-01T11:16:56.782Z,4.60
2019-04-01T11:19:27.317Z,5.20
2019-04-01T11:21:59.076Z,3.40
2019-04-01T11:24:29.560Z,3.90
2019-04-01T11:27:00.041Z,8.40
2019-04-01T11:29:30.725Z,5.60
2019-04-01T11:32:02.361Z,4.00
2019-04-01T11:34:32.912Z,6.03
2019-04-01T11:37:03.448Z,9.00
2019-04-01T11:39:36.167Z,3.92
2019-04-01T11:42:07.011Z,5.40
2019-04-01T11:44:37.749Z,3.50
2019-04-01T11:47:08.285Z,3.52
2019-04-01T11:49:38.811Z,3.33
2019-04-01T11:52:09.374Z,6.60
2019-04-01T11:54:40.068Z,4.47
2019-04-01T11:57:11.104Z,2.80
2019-04-01T11:59:41.951Z,3.83
2019-04-01T12:02:12.697Z,6.10
2019-04-01T12:04:43.182Z,10.05
2019-04-01T12:07:13.758Z,5.67
2019-04-01T12:09:44.287Z,4.78
2019-04-01T12:12:23.674Z,4.22
2019-04-01T12:14:47.083Z,6.42
2019-04-01T12:17:17.723Z,5.05
2019-04-01T12:19:48.214Z,7.58
2019-04-01T12:22:19.912Z,7.40
2019-04-01T12:24:51.006Z,5.80
2019-04-01T12:27:22.612Z,4.75
2019-04-01T12:29:53.180Z,5.10
2019-04-01T12:32:23.730Z,5.50
2019-04-01T12:34:54.199Z,5.90
2019-04-01T12:37:24.744Z,6.10
2019-04-01T12:39:55.219Z,4.40
2019-04-01T12:42:25.765Z,5.47
2019-04-01T12:44:56.326Z,4.55
2019-04-01T12:47:26.816Z,3.35
2019-04-01T12:49:57.417Z,6.95
2019-04-01T12:52:27.892Z,4.60
2019-04-01T12:55:00.872Z,5.17
2019-04-01T12:57:31.851Z,5.22
2019-04-01T13:00:02.475Z,6.72
2019-04-01T13:02:36.398Z,3.70
2019-04-01T13:05:07.958Z,6.53
2019-04-01T13:07:38.481Z,6.62
2019-04-01T13:10:09.436Z,8.93
2019-04-01T13:12:39.954Z,6.33
2019-04-01T13:15:10.481Z,5.55
2019-04-01T13:17:40.966Z,5.83
2019-04-01T13:20:13.902Z,4.35
2019-04-01T13:22:44.629Z,5.75
2019-04-01T13:25:15.101Z,4.40
2019-04-01T13:27:45.802Z,4.83
2019-04-01T13:30:16.275Z,8.53
2019-04-01T13:32:46.778Z,4.45
2019-04-01T13:35:17.258Z,3.47
2019-04-01T13:37:47.840Z,11.70
2019-04-01T13:40:19.594Z,14.20
2019-04-01T13:42:50.489Z,9.70
2019-04-01T13:45:21.551Z,4.62
2019-04-01T13:47:52.394Z,3.80
2019-04-01T13:50:22.924Z,5.10
2019-04-01T13:52:53.475Z,4.95
2019-04-01T13:55:24.084Z,4.30
2019-04-01T13:57:54.636Z,16.82
2019-04-01T14:00:27.399Z,10.50
2019-04-01T14:02:57.555Z,5.80
2019-04-01T14:05:28.042Z,9.48
2019-04-01T14:07:58.616Z,9.13
2019-04-01T14:10:29.126Z,8.68
2019-04-01T14:12:59.758Z,6.53
2019-04-01T14:15:30.900Z,8.05
2019-04-01T14:18:01.531Z,5.97
2019-04-01T14:20:32.012Z,30.60
2019-04-01T14:23:03.625Z,15.40
2019-04-01T14:25:34.995Z,6.67
2019-04-01T14:28:05.705Z,8.05
2019-04-01T14:30:36.709Z,6.05
2019-04-01T14:33:07.202Z,7.97
2019-04-01T14:35:37.813Z,5.78
2019-04-01T14:38:08.297Z,3.87
2019-04-01T14:40:38.886Z,15.53
2019-04-01T14:43:09.984Z,7.65
2019-04-01T14:45:40.960Z,4.20
2019-04-01T14:48:11.428Z,7.53
2019-04-01T14:50:42.051Z,7.70
2019-04-01T14:53:13.683Z,5.10
2019-04-01T14:55:44.314Z,12.95
2019-04-01T14:58:14.787Z,8.98
2019-04-01T15:00:45.269Z,10.70
2019-04-01T15:03:15.750Z,6.70
2019-04-01T15:05:46.232Z,10.55
2019-04-01T15:08:19.429Z,6.35
2019-04-01T15:10:48.958Z,12.37
2019-04-01T15:13:20.499Z,8.85
2019-04-01T15:15:51.120Z,21.33
2019-04-01T15:18:21.707Z,11.03
2019-04-01T15:20:52.255Z,33.13
2019-04-01T15:23:25.021Z,8.35
2019-04-01T15:25:55.081Z,27.82
2019-04-01T15:28:25.613Z,12.68
2019-04-01T15:30:56.553Z,67.65
2019-04-01T15:33:28.016Z,6.62
2019-04-01T15:35:58.561Z,15.75
2019-04-01T15:38:29.272Z,7.62
2019-04-01T15:41:01.350Z,9.15
2019-04-01T15:43:31.985Z,11.90
2019-04-01T15:46:04.152Z,52.15
2019-04-01T15:48:34.893Z,24.25
2019-04-01T15:51:05.421Z,17.75
2019-04-01T15:53:36.054Z,9.98
2019-04-01T15:56:07.725Z,25.82
2019-04-01T15:58:38.239Z,6.15
2019-04-01T16:01:08.797Z,8.25
2019-04-01T16:03:39.404Z,11.25
2019-04-01T16:06:09.937Z,23.05
2019-04-01T16:08:40.460Z,16.30
2019-04-01T16:11:10.997Z,40.10
2019-04-01T16:13:42.329Z,50.03
2019-04-01T16:16:14.673Z,54.15
2019-04-01T16:18:45.453Z,24.15
2019-04-01T16:21:15.989Z,82.25
2019-04-01T16:23:47.311Z,27.22
2019-04-01T16:26:18.031Z,69.20
2019-04-01T16:28:48.604Z,27.87
2019-04-01T16:31:19.137Z,58.42
2019-04-01T16:33:49.672Z,25.88
2019-04-01T16:36:21.317Z,59.95
2019-04-01T16:38:51.959Z,30.80
2019-04-01T16:47:46.945Z,43.65
2019-04-01T16:50:17.978Z,49.35
2019-04-01T16:52:48.649Z,23.47
2019-04-01T16:55:19.213Z,33.53
2019-04-01T16:57:49.693Z,15.58
2019-04-01T17:00:21.303Z,18.05
2019-04-01T17:02:51.932Z,19.50
2019-04-01T17:05:25.748Z,20.37
2019-04-01T17:07:56.372Z,24.63
2019-04-01T17:10:26.871Z,34.00
2019-04-01T17:13:01.468Z,44.93
2019-04-01T17:15:31.220Z,32.83
2019-04-01T17:18:01.878Z,39.70
2019-04-01T17:20:32.476Z,32.60
2019-04-01T17:23:03.006Z,25.62
2019-04-01T17:25:33.989Z,19.95
2019-04-01T17:28:04.613Z,26.40
2019-04-01T17:30:35.145Z,27.90
2019-04-01T17:33:08.389Z,35.73
2019-04-01T17:35:37.956Z,61.55
2019-04-01T17:38:08.485Z,30.40
2019-04-01T17:40:39.120Z,25.23
2019-04-01T17:43:09.814Z,37.90
2019-04-01T17:45:41.309Z,32.23
2019-04-01T17:48:12.291Z,42.45
2019-04-01T17:50:42.778Z,37.55
2019-04-01T17:53:13.350Z,29.75
2019-04-01T17:55:45.758Z,22.20
2019-04-01T17:58:16.505Z,24.05
2019-04-01T18:00:48.706Z,41.28
2019-04-01T18:03:19.423Z,54.40
2019-04-01T18:05:50.188Z,50.63
2019-04-01T18:08:20.692Z,41.20
2019-04-01T18:10:52.047Z,28.47
2019-04-01T18:13:25.749Z,25.15
2019-04-01T18:15:57.511Z,26.62
2019-04-01T18:18:28.654Z,22.98
2019-04-01T18:21:04.102Z,27.00
2019-04-01T18:23:34.829Z,20.55
2019-04-01T18:26:05.497Z,15.05
2019-04-01T18:28:36.096Z,16.00
2019-04-01T18:31:06.625Z,21.12
2019-04-01T18:33:37.163Z,20.92
2019-04-01T18:36:07.786Z,29.23
2019-04-01T18:38:40.943Z,23.27
2019-04-01T18:41:10.595Z,19.67
2019-04-01T18:43:41.227Z,19.02
2019-04-01T18:46:11.794Z,19.07
2019-04-01T18:48:42.395Z,22.65
2019-04-01T18:51:12.928Z,14.83
2019-04-01T18:53:43.561Z,15.90
2019-04-01T18:56:14.088Z,14.68
2019-04-01T18:58:44.716Z,13.30
2019-04-01T19:01:16.065Z,16.67
2019-04-01T19:03:46.907Z,18.40
2019-04-01T19:06:18.578Z,25.48
2019-04-01T19:08:49.203Z,21.73
2019-04-01T19:11:19.833Z,24.72
